Time;durP1;ratioP1;P1;durP2;ratioP2;P2;SDS_P1;SDS_P2;PMS_P1;PMS_P2;Temp;Humidity;BMP_temperature;BMP_pressure;BME280_temperature;BME280_humidity;BME280_pressure;Samples;Min_cycle;Max_cycle;Signal;HPM_P1;HPM_P2
2021/10/20 00:01:28;;;;;;;14.38;8.18;;;;;;;15.09;95.35;100979.63;4951666;28;20050;-68
2021/10/20 00:03:56;;;;;;;16.67;9.65;;;;;;;15.10;95.28;100970.59;4946184;28;20059;-68
2021/10/20 00:06:26;;;;;;;17.42;9.73;;;;;;;15.01;95.58;100971.94;4948686;28;20788;-68
2021/10/20 00:08:53;;;;;;;17.63;9.10;;;;;;;14.96;95.85;100965.91;4946001;28;20137;-70
2021/10/20 00:11:22;;;;;;;13.18;8.02;;;;;;;15.02;95.24;100962.06;4950904;28;20070;-68
2021/10/20 00:13:50;;;;;;;16.80;8.90;;;;;;;14.97;95.33;100961.44;4951141;28;20197;-68
2021/10/20 00:16:19;;;;;;;17.17;8.80;;;;;;;14.96;95.25;100936.34;4953334;28;20061;-68
2021/10/20 00:18:48;;;;;;;15.48;9.35;;;;;;;15.04;94.59;100950.28;4947810;28;20510;-68
2021/10/20 00:21:21;;;;;;;17.58;9.82;;;;;;;15.00;94.94;100942.44;4952409;28;20058;-68
2021/10/20 00:23:50;;;;;;;17.83;8.82;;;;;;;15.04;94.43;100949.44;4952278;28;20051;-68
2021/10/20 00:26:18;;;;;;;18.73;9.70;;;;;;;14.98;94.63;100939.84;4949494;28;20145;-68
2021/10/20 00:28:46;;;;;;;13.43;8.23;;;;;;;15.02;94.13;100930.69;4953921;28;20280;-68
2021/10/20 00:31:15;;;;;;;15.93;8.88;;;;;;;15.06;93.81;100936.78;4955732;28;20094;-68
2021/10/20 00:34:07;;;;;;;14.57;8.85;;;;;;;15.12;93.22;100931.13;4955877;28;20093;-68
2021/10/20 00:36:35;;;;;;;15.60;8.90;;;;;;;15.10;93.17;100933.88;4951319;28;20078;-69
2021/10/20 00:39:04;;;;;;;19.60;9.73;;;;;;;15.08;93.36;100925.00;4951034;28;20134;-69
2021/10/20 00:41:32;;;;;;;16.10;8.98;;;;;;;15.06;92.85;100908.09;4951197;28;20055;-68
2021/10/20 00:43:59;;;;;;;19.73;9.18;;;;;;;14.96;93.50;100909.50;4949653;28;20050;-68
2021/10/20 00:46:28;;;;;;;15.68;8.82;;;;;;;15.10;92.42;100911.47;4952332;28;20286;-69
2021/10/20 00:49:20;;;;;;;14.90;9.25;;;;;;;15.11;92.19;100908.72;4952570;28;20058;-68
2021/10/20 00:51:47;;;;;;;15.98;9.18;;;;;;;15.19;91.45;100920.91;4945549;28;20854;-69
2021/10/20 00:54:17;;;;;;;16.75;9.80;;;;;;;15.13;91.72;100914.03;4947342;28;20057;-68
2021/10/20 00:56:46;;;;;;;17.33;9.07;;;;;;;15.10;91.46;100908.78;4951128;28;20147;-68
2021/10/20 00:59:14;;;;;;;17.17;9.25;;;;;;;15.16;91.06;100905.81;4950693;28;20086;-68
2021/10/20 01:01:42;;;;;;;17.08;8.90;;;;;;;15.10;91.43;100904.31;4949278;28;20094;-68
2021/10/20 01:04:11;;;;;;;18.13;9.73;;;;;;;15.11;91.33;100908.72;4952100;28;20877;-69
2021/10/20 01:06:39;;;;;;;18.60;10.15;;;;;;;15.15;91.05;100903.19;4956930;28;20034;-70
2021/10/20 01:09:32;;;;;;;18.45;9.95;;;;;;;15.08;90.95;100881.13;4952032;28;20566;-69
2021/10/20 01:12:01;;;;;;;20.83;9.80;;;;;;;15.03;91.15;100873.31;4944142;28;20062;-70
2021/10/20 01:14:29;;;;;;;17.63;9.75;;;;;;;15.08;90.80;100881.13;4955091;28;20051;-69
2021/10/20 01:16:58;;;;;;;16.13;9.55;;;;;;;15.07;90.80;100879.41;4951254;28;20148;-70
2021/10/20 01:19:26;;;;;;;16.48;9.18;;;;;;;15.06;90.63;100878.53;4951546;28;20138;-70
2021/10/20 01:21:55;;;;;;;18.33;10.45;;;;;;;15.09;89.97;100885.56;4953227;28;20651;-70
2021/10/20 01:24:24;;;;;;;18.67;9.57;;;;;;;15.05;90.33;100878.59;4953935;28;21149;-68
2021/10/20 01:26:53;;;;;;;20.27;10.35;;;;;;;15.07;89.95;100882.09;4948902;28;20342;-70
2021/10/20 01:29:21;;;;;;;17.98;9.93;;;;;;;15.01;90.48;100883.25;4951058;28;20116;-68
2021/10/20 01:31:51;;;;;;;17.52;9.57;;;;;;;15.11;89.64;100870.25;4946167;28;20169;-68
2021/10/20 01:34:19;;;;;;;19.52;10.10;;;;;;;15.11;89.34;100859.50;4952031;28;20054;-68
2021/10/20 01:36:54;;;;;;;17.60;9.65;;;;;;;15.08;89.83;100867.69;4949708;28;22258;-68
2021/10/20 01:39:22;;;;;;;16.08;9.23;;;;;;;15.07;89.48;100871.34;4952484;28;20496;-69
2021/10/20 01:41:50;;;;;;;21.60;10.10;;;;;;;14.97;90.37;100864.69;4954909;28;20146;-68
2021/10/20 01:44:18;;;;;;;21.10;11.32;;;;;;;15.01;89.65;100871.66;4949046;28;20077;-70
2021/10/20 01:46:46;;;;;;;16.58;10.18;;;;;;;15.08;89.19;100863.19;4949347;28;20047;-70
2021/10/20 01:49:14;;;;;;;18.60;10.32;;;;;;;15.08;89.05;100873.94;4947253;28;20047;-69
2021/10/20 01:52:07;;;;;;;20.38;10.13;;;;;;;15.01;89.24;100861.75;4942757;28;20135;-73
2021/10/20 01:54:35;;;;;;;19.80;10.02;;;;;;;14.98;89.55;100851.16;4947698;28;20740;-73
2021/10/20 01:57:04;;;;;;;19.63;10.40;;;;;;;14.96;89.48;100841.47;4946569;28;20043;-73
2021/10/20 01:59:32;;;;;;;19.90;10.52;;;;;;;15.01;88.89;100834.03;4952162;28;20055;-73
2021/10/20 02:02:00;;;;;;;22.95;11.20;;;;;;;14.97;89.10;100827.94;4950479;28;20133;-73
2021/10/20 02:04:29;;;;;;;19.65;11.38;;;;;;;15.00;88.77;100814.38;4950299;28;20110;-73
2021/10/20 02:06:57;;;;;;;21.48;10.68;;;;;;;14.98;88.89;100821.59;4949461;28;20691;-73
2021/10/20 02:09:26;;;;;;;20.88;10.43;;;;;;;14.88;89.23;100815.84;4949849;28;20150;-72
2021/10/20 02:11:54;;;;;;;19.20;10.32;;;;;;;14.93;89.24;100815.59;4947049;28;20146;-73
2021/10/20 02:14:22;;;;;;;23.42;10.48;;;;;;;14.91;89.27;100809.44;4955668;28;20050;-73
2021/10/20 02:16:50;;;;;;;16.90;9.82;;;;;;;14.92;88.96;100800.44;4945253;28;20047;-73
2021/10/20 02:19:18;;;;;;;17.90;9.40;;;;;;;14.94;88.95;100807.47;4956188;28;20083;-69
2021/10/20 02:21:46;;;;;;;18.10;10.18;;;;;;;14.84;89.64;100810.72;4949043;28;20054;-69
2021/10/20 02:24:14;;;;;;;20.42;10.52;;;;;;;14.87;89.24;100806.03;4949679;28;20128;-69
2021/10/20 02:26:44;;;;;;;21.48;10.43;;;;;;;14.81;89.93;100800.97;4951367;28;20090;-68
2021/10/20 02:29:12;;;;;;;20.98;11.18;;;;;;;14.77;89.90;100796.72;4954431;28;20047;-69
2021/10/20 02:31:46;;;;;;;22.10;11.13;;;;;;;14.88;89.27;100794.38;4949759;28;20620;-71
2021/10/20 02:34:15;;;;;;;17.88;11.40;;;;;;;14.81;89.55;100786.69;4948065;28;20050;-72
2021/10/20 02:36:43;;;;;;;19.13;10.75;;;;;;;14.82;89.47;100786.59;4950011;28;20051;-72
2021/10/20 02:39:12;;;;;;;19.88;10.38;;;;;;;14.79;89.58;100780.53;4949564;28;20586;-72
2021/10/20 02:41:41;;;;;;;19.92;9.93;;;;;;;14.73;89.90;100774.50;4950840;28;20055;-72
2021/10/20 02:44:10;;;;;;;23.05;10.93;;;;;;;14.79;89.25;100772.47;4948786;28;20063;-71
2021/10/20 02:46:38;;;;;;;18.40;10.85;;;;;;;14.78;89.76;100752.81;4947002;28;20109;-68
2021/10/20 02:49:06;;;;;;;19.42;10.80;;;;;;;14.73;89.85;100757.53;4950404;28;20055;-69
2021/10/20 02:51:37;;;;;;;17.90;10.50;;;;;;;14.64;90.27;100750.81;4953056;28;20078;-72
2021/10/20 02:54:07;;;;;;;20.83;10.43;;;;;;;14.64;89.99;100750.81;4944626;28;20051;-72
2021/10/20 02:56:34;;;;;;;22.20;10.85;;;;;;;14.73;89.12;100747.66;4955256;28;20054;-69
2021/10/20 02:59:02;;;;;;;22.65;11.88;;;;;;;14.81;89.03;100751.75;4948799;28;20312;-69
2021/10/20 03:01:33;;;;;;;20.88;10.68;;;;;;;14.75;89.43;100743.06;4955494;28;20181;-69
2021/10/20 03:04:01;;;;;;;22.27;11.75;;;;;;;14.78;89.26;100730.44;4950617;28;20058;-68
2021/10/20 03:06:29;;;;;;;19.23;10.85;;;;;;;14.72;89.61;100726.25;4952271;28;20428;-69
2021/10/20 03:08:58;;;;;;;20.25;11.15;;;;;;;14.74;89.06;100733.28;4953115;28;20055;-69
2021/10/20 03:11:26;;;;;;;24.05;12.45;;;;;;;14.79;88.62;100734.88;4948241;28;20133;-69
2021/10/20 03:13:54;;;;;;;20.42;11.55;;;;;;;14.81;88.47;100731.13;4951930;28;20142;-69
2021/10/20 03:16:22;;;;;;;24.40;11.50;;;;;;;14.94;87.72;100720.63;4953152;28;20110;-69
2021/10/20 03:18:55;;;;;;;22.52;11.88;;;;;;;15.00;86.78;100708.69;4948046;28;20475;-68
2021/10/20 03:21:23;;;;;;;22.92;12.90;;;;;;;14.93;87.40;100729.63;4952146;28;20558;-68
2021/10/20 03:23:51;;;;;;;24.48;12.15;;;;;;;15.13;85.96;100716.00;4950498;28;20055;-69
2021/10/20 03:26:19;;;;;;;23.35;12.82;;;;;;;15.09;86.67;100724.34;4952639;28;20406;-69
2021/10/20 03:28:47;;;;;;;23.13;11.68;;;;;;;15.10;86.13;100726.06;4949390;28;20160;-69
2021/10/20 03:31:16;;;;;;;23.73;12.82;;;;;;;15.12;86.15;100718.81;4954882;28;20054;-68
2021/10/20 03:33:45;;;;;;;23.33;11.90;;;;;;;15.00;87.07;100712.28;4953980;28;20138;-69
2021/10/20 03:36:15;;;;;;;24.60;14.07;;;;;;;15.03;87.16;100719.28;4948309;28;20054;-68
2021/10/20 03:38:43;;;;;;;25.55;13.07;;;;;;;15.04;86.99;100713.84;4952457;28;20047;-68
2021/10/20 03:41:11;;;;;;;22.65;11.63;;;;;;;15.02;87.43;100710.38;4946995;28;20051;-68
2021/10/20 03:43:40;;;;;;;24.70;12.55;;;;;;;15.04;87.50;100715.66;4954894;28;20578;-68
2021/10/20 03:46:09;;;;;;;21.27;11.05;;;;;;;14.93;88.25;100697.41;4949725;28;20071;-68
2021/10/20 03:48:37;;;;;;;24.95;12.23;;;;;;;14.93;88.22;100716.19;4953546;28;20621;-72
2021/10/20 03:51:05;;;;;;;21.15;12.00;;;;;;;15.02;87.76;100688.00;4952236;28;20047;-72
2021/10/20 03:53:34;;;;;;;23.70;12.00;;;;;;;14.97;88.24;100692.75;4945156;28;20605;-72
2021/10/20 03:56:02;;;;;;;24.83;11.57;;;;;;;15.07;87.73;100700.25;4952451;28;20644;-68
2021/10/20 03:58:30;;;;;;;20.63;10.88;;;;;;;15.03;88.11;100692.41;4950565;28;20085;-72
2021/10/20 04:00:58;;;;;;;20.70;11.10;;;;;;;15.14;87.73;100690.03;4953831;28;20058;-72
2021/10/20 04:03:26;;;;;;;23.33;11.40;;;;;;;15.08;88.23;100684.97;4952016;28;20047;-72
2021/10/20 04:05:57;;;;;;;20.77;11.10;;;;;;;15.06;88.29;100674.31;4951238;28;20489;-72
2021/10/20 04:08:26;;;;;;;21.88;11.32;;;;;;;15.16;87.67;100681.91;4953368;28;20129;-72
2021/10/20 04:10:56;;;;;;;18.30;10.57;;;;;;;15.22;87.11;100665.41;4950369;28;20538;-72
2021/10/20 04:13:24;;;;;;;20.50;10.45;;;;;;;15.19;87.63;100661.09;4952201;28;20090;-72
2021/10/20 04:15:52;;;;;;;23.70;11.18;;;;;;;15.22;87.37;100658.25;4948732;28;20054;-72
2021/10/20 04:18:20;;;;;;;21.92;11.73;;;;;;;15.26;87.34;100662.50;4956136;28;20047;-72
2021/10/20 04:20:48;;;;;;;23.02;11.80;;;;;;;15.20;87.59;100645.81;4951842;28;20078;-72
2021/10/20 04:23:16;;;;;;;23.38;12.18;;;;;;;15.34;86.91;100648.66;4950066;28;20065;-72
2021/10/20 04:25:44;;;;;;;22.25;11.25;;;;;;;15.32;87.47;100640.66;4952857;28;20058;-72
2021/10/20 04:28:15;;;;;;;21.10;10.88;;;;;;;15.36;87.22;100644.03;4951020;28;20058;-73
2021/10/20 04:30:43;;;;;;;21.30;10.55;;;;;;;15.36;87.43;100644.03;4954753;28;20613;-72
2021/10/20 04:33:11;;;;;;;25.13;12.30;;;;;;;15.32;87.67;100639.78;4949038;28;20059;-72
2021/10/20 04:35:39;;;;;;;23.30;11.25;;;;;;;15.33;88.01;100638.84;4950870;28;20118;-72
2021/10/20 04:38:07;;;;;;;19.67;11.43;;;;;;;15.50;86.88;100646.81;4946173;28;20090;-72
2021/10/20 04:40:35;;;;;;;23.35;11.43;;;;;;;15.48;86.92;100639.81;4952395;28;20058;-71
2021/10/20 04:43:03;;;;;;;22.73;11.30;;;;;;;15.47;87.06;100646.13;4951573;28;22079;-71
2021/10/20 04:45:33;;;;;;;20.10;10.98;;;;;;;15.46;87.76;100639.91;4950118;28;20047;-71
2021/10/20 04:48:24;;;;;;;22.05;11.57;;;;;;;15.45;88.75;100642.66;4950813;28;20067;-72
2021/10/20 04:50:54;;;;;;;21.15;11.27;;;;;;;15.50;88.79;100651.34;4953813;28;20058;-72
2021/10/20 04:53:21;;;;;;;22.65;11.77;;;;;;;15.40;90.38;100642.06;4944537;28;20234;-72
2021/10/20 04:55:50;;;;;;;21.70;11.52;;;;;;;15.36;90.57;100637.78;4949961;28;20057;-73
2021/10/20 04:58:17;;;;;;;21.15;11.48;;;;;;;15.40;89.92;100637.53;4948566;28;20838;-72
2021/10/20 05:00:47;;;;;;;21.90;10.90;;;;;;;15.48;89.55;100640.66;4953063;28;20090;-72
2021/10/20 05:03:19;;;;;;;21.20;11.50;;;;;;;15.41;90.29;100638.38;4946429;28;20078;-68
2021/10/20 05:05:47;;;;;;;20.52;11.27;;;;;;;15.40;90.50;100618.72;4955515;28;20053;-68
2021/10/20 05:08:15;;;;;;;20.30;11.27;;;;;;;15.38;90.69;100622.47;4957227;28;20141;-68
2021/10/20 05:10:43;;;;;;;21.05;10.98;;;;;;;15.39;90.39;100616.09;4954286;28;20061;-68
2021/10/20 05:13:11;;;;;;;22.92;11.10;;;;;;;15.52;88.76;100614.47;4951673;28;20163;-69
2021/10/20 05:15:42;;;;;;;25.15;11.75;;;;;;;15.54;88.89;100609.00;4950887;28;20146;-68
2021/10/20 05:18:13;;;;;;;23.58;11.95;;;;;;;15.56;89.08;100599.03;4956082;28;20047;-68
2021/10/20 05:20:41;;;;;;;19.35;10.35;;;;;;;15.54;89.51;100584.81;4953754;28;20111;-72
2021/10/20 05:23:10;;;;;;;20.52;11.10;;;;;;;15.46;90.06;100590.59;4955521;28;20105;-68
2021/10/20 05:25:38;;;;;;;20.92;10.93;;;;;;;15.49;89.37;100585.06;4951802;28;20055;-68
2021/10/20 05:28:07;;;;;;;18.92;10.52;;;;;;;15.45;89.95;100588.88;4950155;28;20050;-68
2021/10/20 05:30:35;;;;;;;19.35;10.60;;;;;;;15.54;89.19;100579.44;4953815;28;20211;-68
2021/10/20 05:33:04;;;;;;;18.20;10.60;;;;;;;15.54;89.78;100585.66;4949137;28;20415;-68
2021/10/20 05:35:33;;;;;;;19.38;10.90;;;;;;;15.53;90.20;100591.13;4955643;28;20458;-68
2021/10/20 05:38:01;;;;;;;21.50;11.18;;;;;;;15.55;89.92;100565.91;4956087;28;20089;-73
2021/10/20 05:40:29;;;;;;;22.70;10.73;;;;;;;15.56;90.17;100559.59;4950438;28;20747;-71
2021/10/20 05:43:21;;;;;;;21.33;11.25;;;;;;;15.50;90.77;100558.09;4953581;28;20053;-71
2021/10/20 05:45:52;;;;;;;23.90;12.20;;;;;;;15.52;91.19;100544.56;4951656;28;20101;-72
2021/10/20 05:48:22;;;;;;;20.77;11.02;;;;;;;15.50;91.33;100539.28;4957391;28;20082;-73
2021/10/20 05:50:52;;;;;;;22.38;11.35;;;;;;;15.52;92.00;100520.38;4949217;28;20053;-72
2021/10/20 05:53:20;;;;;;;22.45;11.88;;;;;;;15.44;92.96;100525.31;4948833;28;20121;-72
2021/10/20 05:56:12;;;;;;;24.58;12.50;;;;;;;15.49;93.17;100528.59;4950823;28;20066;-72
2021/10/20 05:58:41;;;;;;;20.83;10.73;;;;;;;15.46;93.43;100509.94;4953409;28;20043;-72
2021/10/20 06:01:10;;;;;;;22.48;10.40;;;;;;;15.44;92.88;100518.13;4954982;28;20053;-72
2021/10/20 06:03:38;;;;;;;20.27;11.52;;;;;;;15.36;93.23;100517.69;4949116;28;20053;-72
2021/10/20 06:06:08;;;;;;;22.40;10.65;;;;;;;15.29;92.64;100503.75;4952573;28;20232;-72
2021/10/20 06:08:35;;;;;;;23.13;10.48;;;;;;;15.29;92.24;100527.06;4949379;28;20051;-71
2021/10/20 06:11:03;;;;;;;19.45;10.38;;;;;;;15.23;92.19;100509.44;4952928;28;20479;-72
2021/10/20 06:13:31;;;;;;;16.60;9.30;;;;;;;15.18;92.44;100500.78;4953628;28;20050;-72
2021/10/20 06:15:59;;;;;;;19.50;10.57;;;;;;;15.20;92.29;100500.69;4953095;28;20137;-72
2021/10/20 06:18:28;;;;;;;14.95;9.80;;;;;;;15.14;92.86;100488.50;4953021;28;20054;-72
2021/10/20 06:20:57;;;;;;;16.60;10.55;;;;;;;15.11;92.91;100497.56;4951158;28;20058;-68
2021/10/20 06:23:27;;;;;;;16.45;9.85;;;;;;;15.07;93.19;100509.47;4955760;28;20118;-68
2021/10/20 06:25:56;;;;;;;18.77;11.00;;;;;;;15.08;93.39;100513.00;4954254;28;20059;-67
2021/10/20 06:28:23;;;;;;;17.55;9.55;;;;;;;15.06;93.81;100496.97;4956901;28;20054;-68
2021/10/20 06:30:53;;;;;;;15.27;9.18;;;;;;;15.03;94.81;100501.66;4952664;28;20058;-68
2021/10/20 06:33:20;;;;;;;17.95;9.55;;;;;;;14.93;96.79;100526.34;4950095;28;20149;-68
2021/10/20 06:35:54;;;;;;;17.90;10.25;;;;;;;14.88;97.60;100528.44;4952717;28;20180;-72
2021/10/20 06:38:22;;;;;;;19.02;9.63;;;;;;;14.82;98.48;100517.16;4949710;28;20587;-74
2021/10/20 06:40:52;;;;;;;22.80;9.68;;;;;;;14.69;99.92;100501.72;4954938;28;20055;-74
2021/10/20 06:43:20;;;;;;;18.35;10.38;;;;;;;14.61;100.00;100501.25;4947100;28;20050;-75
2021/10/20 06:46:12;;;;;;;21.42;10.95;;;;;;;14.50;100.00;100501.78;4953608;28;20464;-72
2021/10/20 06:48:41;;;;;;;23.42;11.38;;;;;;;14.36;100.00;100488.25;4951029;28;20331;-71
2021/10/20 06:51:10;;;;;;;19.05;10.32;;;;;;;14.38;100.00;100471.09;4955394;28;20043;-72
2021/10/20 06:53:38;;;;;;;17.67;10.10;;;;;;;14.30;100.00;100451.00;4948016;28;20047;-70
2021/10/20 06:56:08;;;;;;;21.20;10.85;;;;;;;14.22;100.00;100437.13;4949317;28;20160;-70
2021/10/20 06:58:36;;;;;;;18.30;11.10;;;;;;;14.17;100.00;100432.03;4955043;28;20648;-71
2021/10/20 07:01:05;;;;;;;20.35;11.00;;;;;;;14.14;100.00;100434.84;4953732;28;20127;-71
2021/10/20 07:03:34;;;;;;;20.23;10.38;;;;;;;14.14;100.00;100433.03;4954478;28;20134;-72
2021/10/20 07:06:06;;;;;;;21.20;10.47;;;;;;;14.15;100.00;100399.03;4951414;28;20058;-72
2021/10/20 07:08:34;;;;;;;20.55;10.90;;;;;;;14.11;100.00;100384.91;4952703;28;20066;-73
2021/10/20 07:11:02;;;;;;;18.95;11.32;;;;;;;14.11;100.00;100371.50;4949122;28;20496;-73
2021/10/20 07:13:31;;;;;;;21.63;11.68;;;;;;;14.09;100.00;100365.34;4951328;28;20118;-73
2021/10/20 07:15:59;;;;;;;27.40;10.85;;;;;;;14.04;100.00;100337.91;4953955;28;20055;-71
2021/10/20 07:18:29;;;;;;;22.40;11.73;;;;;;;14.04;100.00;100335.22;4954029;28;20053;-71
2021/10/20 07:20:56;;;;;;;23.05;11.27;;;;;;;14.03;100.00;100338.88;4950612;28;20054;-72
2021/10/20 07:23:24;;;;;;;20.48;11.32;;;;;;;14.06;100.00;100345.88;4950891;28;20137;-71
2021/10/20 07:25:54;;;;;;;18.73;10.93;;;;;;;14.06;100.00;100344.03;4950755;28;20054;-71
2021/10/20 07:28:22;;;;;;;23.27;11.32;;;;;;;14.05;100.00;100344.16;4952819;28;20398;-70
2021/10/20 07:30:51;;;;;;;22.27;11.38;;;;;;;14.02;100.00;100348.72;4948154;28;20047;-70
2021/10/20 07:33:19;;;;;;;23.23;11.82;;;;;;;14.03;100.00;100354.97;4954402;28;20086;-71
2021/10/20 07:35:47;;;;;;;21.30;9.82;;;;;;;14.08;100.00;100352.91;4949270;28;20086;-71
2021/10/20 07:38:16;;;;;;;19.00;10.68;;;;;;;14.12;100.00;100350.91;4955180;28;20143;-71
2021/10/20 07:40:44;;;;;;;21.33;10.95;;;;;;;14.11;100.00;100339.28;4953037;28;20042;-71
2021/10/20 07:43:41;;;;;;;21.65;12.30;;;;;;;14.13;100.00;100355.31;4950322;28;20150;-72
2021/10/20 07:46:11;;;;;;;17.70;10.30;;;;;;;14.18;100.00;100339.81;4952931;28;20061;-71
2021/10/20 07:48:38;;;;;;;18.40;10.20;;;;;;;14.20;100.00;100362.09;4949353;28;20078;-71
2021/10/20 07:51:06;;;;;;;18.10;10.52;;;;;;;14.26;100.00;100364.44;4955186;28;20121;-72
2021/10/20 07:53:58;;;;;;;18.50;11.07;;;;;;;14.31;100.00;100359.66;4945459;28;20503;-72
2021/10/20 07:56:32;;;;;;;19.35;11.05;;;;;;;14.34;100.00;100347.91;4956259;28;20050;-72
2021/10/20 07:59:00;;;;;;;19.77;10.30;;;;;;;14.35;100.00;100361.25;4949793;28;20062;-72
2021/10/20 08:01:30;;;;;;;20.20;10.93;;;;;;;14.43;100.00;100351.91;4953743;28;20074;-75
2021/10/20 08:03:58;;;;;;;17.40;10.52;;;;;;;14.56;100.00;100369.06;4954946;28;20046;-75
2021/10/20 08:06:26;;;;;;;19.52;11.23;;;;;;;14.70;100.00;100382.59;4949472;28;20181;-74
2021/10/20 08:08:54;;;;;;;18.60;10.10;;;;;;;14.78;100.00;100360.69;4955291;28;20406;-74
2021/10/20 08:11:22;;;;;;;18.65;10.15;;;;;;;14.86;100.00;100362.91;4952311;28;20193;-74
2021/10/20 08:13:49;;;;;;;17.33;10.43;;;;;;;14.98;100.00;100358.66;4946916;28;20181;-73
2021/10/20 08:16:17;;;;;;;15.65;8.98;;;;;;;15.03;100.00;100361.94;4953063;28;20450;-73
2021/10/20 08:18:47;;;;;;;18.95;10.77;;;;;;;15.02;100.00;100354.84;4952480;28;20152;-72
2021/10/20 08:21:16;;;;;;;17.50;9.88;;;;;;;15.23;100.00;100363.47;4954203;28;20054;-72
2021/10/20 08:23:44;;;;;;;19.60;10.45;;;;;;;15.16;100.00;100354.91;4949789;28;20144;-72
2021/10/20 08:26:12;;;;;;;19.25;11.10;;;;;;;15.11;100.00;100362.38;4956638;28;20055;-73
2021/10/20 08:28:43;;;;;;;15.57;10.25;;;;;;;15.07;100.00;100363.50;4953079;28;20266;-72
2021/10/20 08:31:12;;;;;;;17.05;10.82;;;;;;;15.06;100.00;100359.94;4949419;28;20341;-72
2021/10/20 08:33:40;;;;;;;16.92;9.93;;;;;;;15.09;100.00;100365.13;4952994;28;20433;-70
2021/10/20 08:36:09;;;;;;;20.33;11.07;;;;;;;15.17;100.00;100340.53;4948669;28;20130;-69
2021/10/20 08:38:37;;;;;;;19.85;10.77;;;;;;;15.30;100.00;100346.88;4954514;28;20106;-70
2021/10/20 08:41:05;;;;;;;16.23;10.20;;;;;;;15.53;100.00;100341.06;4951737;28;20560;-69
2021/10/20 08:43:33;;;;;;;17.63;10.82;;;;;;;15.48;100.00;100344.06;4958133;28;20145;-69
2021/10/20 08:46:03;;;;;;;20.38;10.70;;;;;;;15.43;100.00;100327.34;4952340;28;20423;-69
2021/10/20 08:48:32;;;;;;;19.50;10.65;;;;;;;15.50;100.00;100328.69;4958494;28;20047;-69
2021/10/20 08:51:02;;;;;;;20.23;11.40;;;;;;;15.67;100.00;100324.97;4957719;28;20137;-69
2021/10/20 08:53:32;;;;;;;19.88;12.45;;;;;;;15.70;100.00;100338.25;4945072;28;20468;-70
2021/10/20 08:56:00;;;;;;;19.15;11.52;;;;;;;15.62;100.00;100346.75;4956879;28;20305;-70
2021/10/20 08:58:28;;;;;;;21.55;11.60;;;;;;;15.61;100.00;100363.00;4956153;28;20079;-69
2021/10/20 09:00:57;;;;;;;17.70;11.20;;;;;;;15.59;100.00;100359.53;4955776;28;20055;-70
2021/10/20 09:03:25;;;;;;;18.55;11.23;;;;;;;15.59;100.00;100330.81;4958460;28;20094;-71
2021/10/20 09:05:57;;;;;;;21.92;13.85;;;;;;;15.61;100.00;100314.59;4952145;28;20172;-70
2021/10/20 09:08:25;;;;;;;20.25;12.13;;;;;;;15.63;100.00;100320.72;4957497;28;20051;-69
2021/10/20 09:10:55;;;;;;;24.30;11.40;;;;;;;15.71;100.00;100318.44;4953005;28;20573;-69
2021/10/20 09:13:25;;;;;;;17.75;10.77;;;;;;;15.73;100.00;100312.97;4955751;28;20141;-69
2021/10/20 09:15:59;;;;;;;17.45;11.55;;;;;;;15.74;100.00;100303.94;4956685;28;20047;-69
2021/10/20 09:18:32;;;;;;;18.90;11.00;;;;;;;15.67;100.00;100315.06;4952964;28;20046;-70
2021/10/20 09:21:00;;;;;;;20.85;10.73;;;;;;;15.64;100.00;100312.56;4954175;28;20047;-69
2021/10/20 09:23:31;;;;;;;18.00;10.05;;;;;;;15.69;100.00;100320.38;4952954;28;20128;-70
2021/10/20 09:26:00;;;;;;;17.98;10.68;;;;;;;15.62;100.00;100316.31;4954694;28;20173;-71
2021/10/20 09:28:32;;;;;;;21.35;10.13;;;;;;;15.62;100.00;100313.63;4951257;28;20058;-70
2021/10/20 09:31:02;;;;;;;18.63;10.43;;;;;;;15.68;100.00;100310.56;4958543;28;20049;-69
2021/10/20 09:33:31;;;;;;;17.80;9.77;;;;;;;15.77;100.00;100284.97;4958114;28;20066;-70
2021/10/20 09:36:02;;;;;;;17.88;10.73;;;;;;;15.74;100.00;100301.25;4952870;28;20105;-71
2021/10/20 09:38:33;;;;;;;18.70;10.45;;;;;;;15.80;100.00;100315.22;4955165;28;20047;-71
2021/10/20 09:41:06;;;;;;;18.20;10.13;;;;;;;15.73;100.00;100313.81;4951630;28;20117;-71
2021/10/20 09:43:41;;;;;;;17.83;10.38;;;;;;;15.73;100.00;100305.75;4955830;28;20133;-71
2021/10/20 09:46:09;;;;;;;17.23;9.32;;;;;;;15.82;100.00;100299.00;4954447;28;20102;-73
2021/10/20 09:48:42;;;;;;;19.17;10.82;;;;;;;15.82;100.00;100302.53;4953539;28;20471;-71
2021/10/20 09:51:11;;;;;;;17.45;10.23;;;;;;;15.85;100.00;100296.09;4956980;28;20136;-71
2021/10/20 09:53:41;;;;;;;16.38;10.13;;;;;;;15.96;100.00;100290.91;4947852;28;20460;-72
2021/10/20 09:56:27;;;;;;;17.45;9.85;;;;;;;16.00;99.50;100299.66;4956158;28;20160;-73
2021/10/20 09:58:56;;;;;;;16.13;10.07;;;;;;;16.05;98.86;100305.59;4949713;28;20763;-71
2021/10/20 10:01:26;;;;;;;15.98;9.55;;;;;;;16.08;98.41;100308.09;4955028;28;21786;-71
2021/10/20 10:04:02;;;;;;;15.05;9.15;;;;;;;16.14;97.98;100296.97;4952747;28;22663;-70
2021/10/20 10:06:29;;;;;;;15.48;8.98;;;;;;;16.17;98.15;100303.94;4955380;28;20109;-70
2021/10/20 10:09:21;;;;;;;16.08;9.23;;;;;;;16.24;97.73;100318.75;4955929;28;20077;-70
2021/10/20 10:11:53;;;;;;;16.42;8.90;;;;;;;16.24;97.22;100300.78;4949742;28;20196;-70
2021/10/20 10:14:25;;;;;;;15.80;10.10;;;;;;;16.32;97.34;100307.50;4952414;28;20078;-71
2021/10/20 10:16:59;;;;;;;17.50;9.15;;;;;;;16.30;97.15;100310.28;4953315;28;20151;-71
2021/10/20 10:19:27;;;;;;;;;;;;;;;16.32;97.25;100310.19;4953497;28;20137;-69
2021/10/20 10:21:57;;;;;;;14.02;8.95;;;;;;;16.30;97.70;100307.59;4954357;28;20021;-69
2021/10/20 10:24:35;;;;;;;17.40;9.35;;;;;;;16.34;96.59;100316.34;4955561;28;20131;-69
2021/10/20 10:27:06;;;;;;;16.92;8.30;;;;;;;16.35;96.82;100313.53;4952554;28;20053;-69
2021/10/20 10:30:03;;;;;;;15.05;9.20;;;;;;;16.40;96.65;100299.78;4955190;28;20073;-71
2021/10/20 10:32:47;;;;;;;13.82;8.32;;;;;;;16.48;96.55;100321.72;4953291;28;20074;-70
2021/10/20 10:35:16;;;;;;;17.80;9.85;;;;;;;16.47;96.67;100309.19;4950098;28;20061;-72
2021/10/20 10:37:46;;;;;;;15.43;8.98;;;;;;;16.49;96.29;100304.56;4954538;28;20154;-69
2021/10/20 10:40:22;;;;;;;16.25;9.10;;;;;;;16.46;96.20;100301.22;4949685;28;20082;-72
2021/10/20 10:42:52;;;;;;;16.23;8.60;;;;;;;16.48;96.49;100297.47;4954502;28;20039;-71
2021/10/20 10:45:23;;;;;;;16.10;8.48;;;;;;;16.50;95.87;100287.47;4950312;28;20065;-70
2021/10/20 10:48:16;;;;;;;17.50;8.43;;;;;;;16.51;95.74;100297.25;4955756;28;20070;-71
2021/10/20 10:51:14;;;;;;;15.48;8.55;;;;;;;16.46;96.03;100302.06;4950461;28;20135;-71
2021/10/20 10:53:51;;;;;;;16.77;7.97;;;;;;;16.42;95.54;100296.03;4953870;28;20059;-70
2021/10/20 10:56:23;;;;;;;15.82;8.55;;;;;;;16.42;95.72;100301.41;4952389;28;20525;-70
2021/10/20 10:59:03;;;;;;;16.17;8.35;;;;;;;16.41;95.83;100283.53;4957516;28;20044;-71
2021/10/20 11:01:43;;;;;;;13.80;8.57;;;;;;;16.39;96.52;100308.81;4951451;28;20486;-71
2021/10/20 11:04:18;;;;;;;13.20;7.97;;;;;;;16.43;96.07;100300.47;4952452;28;20508;-71
2021/10/20 11:06:47;;;;;;;13.60;7.97;;;;;;;16.49;95.12;100280.34;4953767;28;20046;-71
2021/10/20 11:09:18;;;;;;;13.43;7.93;;;;;;;16.55;93.90;100300.59;4947615;28;20062;-71
2021/10/20 11:11:48;;;;;;;16.15;7.53;;;;;;;16.52;94.68;100290.91;4953094;28;20046;-71
2021/10/20 11:14:27;;;;;;;16.33;8.32;;;;;;;16.55;94.41;100284.44;4952864;28;20069;-71
2021/10/20 11:16:59;;;;;;;14.63;7.28;;;;;;;16.50;94.71;100284.78;4954073;28;20054;-70
2021/10/20 11:19:27;;;;;;;13.68;7.88;;;;;;;16.54;95.78;100282.72;4955000;28;20058;-72
2021/10/20 11:22:03;;;;;;;14.30;7.70;;;;;;;16.53;95.33;100289.06;4951913;28;20637;-72
2021/10/20 11:24:33;;;;;;;16.40;8.15;;;;;;;16.51;95.51;100293.69;4952627;28;20057;-72